sensor_id;sensor_type;location;lat;lon;timestamp;temperature;humidity
11836;DHT22;5977;51.972;7.640;2023-03-20T00:00:31;18.40;68.50
11836;DHT22;5977;51.972;7.640;2023-03-20T00:03:00;18.30;68.40
11836;DHT22;5977;51.972;7.640;2023-03-20T00:05:29;18.40;68.40
11836;DHT22;5977;51.972;7.640;2023-03-20T00:07:58;18.30;68.60
11836;DHT22;5977;51.972;7.640;2023-03-20T00:10:31;18.30;68.60
11836;DHT22;5977;51.972;7.640;2023-03-20T00:13:01;18.30;68.50
11836;DHT22;5977;51.972;7.640;2023-03-20T00:15:32;18.30;68.50
11836;DHT22;5977;51.972;7.640;2023-03-20T00:18:02;18.30;68.30
11836;DHT22;5977;51.972;7.640;2023-03-20T00:20:31;18.40;68.50
11836;DHT22;5977;51.972;7.640;2023-03-20T00:22:59;18.40;68.60
11836;DHT22;5977;51.972;7.640;2023-03-20T00:25:26;18.40;68.60
11836;DHT22;5977;51.972;7.640;2023-03-20T00:27:56;18.40;68.70
11836;DHT22;5977;51.972;7.640;2023-03-20T00:30:26;18.30;68.60
11836;DHT22;5977;51.972;7.640;2023-03-20T00:32:56;18.30;68.80
11836;DHT22;5977;51.972;7.640;2023-03-20T00:35:27;18.40;69.20
11836;DHT22;5977;51.972;7.640;2023-03-20T00:37:56;18.50;68.80
11836;DHT22;5977;51.972;7.640;2023-03-20T00:40:29;18.40;68.20
11836;DHT22;5977;51.972;7.640;2023-03-20T00:43:00;18.40;68.40
11836;DHT22;5977;51.972;7.640;2023-03-20T00:45:30;18.40;68.20
11836;DHT22;5977;51.972;7.640;2023-03-20T00:48:00;18.40;68.40
11836;DHT22;5977;51.972;7.640;2023-03-20T00:50:30;18.30;68.70
11836;DHT22;5977;51.972;7.640;2023-03-20T00:52:58;18.30;68.70
11836;DHT22;5977;51.972;7.640;2023-03-20T00:55:27;18.30;68.80
11836;DHT22;5977;51.972;7.640;2023-03-20T00:57:59;18.20;68.80
11836;DHT22;5977;51.972;7.640;2023-03-20T01:00:37;18.20;68.90
11836;DHT22;5977;51.972;7.640;2023-03-20T01:03:12;18.20;69.00
11836;DHT22;5977;51.972;7.640;2023-03-20T01:05:41;18.20;68.80
11836;DHT22;5977;51.972;7.640;2023-03-20T01:08:14;18.20;68.80
11836;DHT22;5977;51.972;7.640;2023-03-20T01:10:44;18.30;68.90
11836;DHT22;5977;51.972;7.640;2023-03-20T01:13:18;18.30;68.50
11836;DHT22;5977;51.972;7.640;2023-03-20T01:15:48;18.10;68.80
11836;DHT22;5977;51.972;7.640;2023-03-20T01:18:18;18.10;68.80
11836;DHT22;5977;51.972;7.640;2023-03-20T01:20:46;18.10;68.80
11836;DHT22;5977;51.972;7.640;2023-03-20T01:23:15;18.20;68.90
11836;DHT22;5977;51.972;7.640;2023-03-20T01:25:43;18.20;68.90
11836;DHT22;5977;51.972;7.640;2023-03-20T01:28:14;18.10;68.60
11836;DHT22;5977;51.972;7.640;2023-03-20T01:30:45;18.00;69.20
11836;DHT22;5977;51.972;7.640;2023-03-20T01:33:14;17.90;69.50
11836;DHT22;5977;51.972;7.640;2023-03-20T01:35:45;17.90;69.10
11836;DHT22;5977;51.972;7.640;2023-03-20T01:38:16;18.00;69.70
11836;DHT22;5977;51.972;7.640;2023-03-20T01:40:54;18.20;69.30
11836;DHT22;5977;51.972;7.640;2023-03-20T01:43:26;18.00;69.20
11836;DHT22;5977;51.972;7.640;2023-03-20T01:46:00;18.00;69.40
11836;DHT22;5977;51.972;7.640;2023-03-20T01:51:23;18.00;69.60
11836;DHT22;5977;51.972;7.640;2023-03-20T01:53:58;18.10;69.60
11836;DHT22;5977;51.972;7.640;2023-03-20T01:56:29;18.00;70.60
11836;DHT22;5977;51.972;7.640;2023-03-20T01:59:03;18.00;69.40
11836;DHT22;5977;51.972;7.640;2023-03-20T02:01:34;17.90;70.00
11836;DHT22;5977;51.972;7.640;2023-03-20T02:04:04;17.90;70.60
11836;DHT22;5977;51.972;7.640;2023-03-20T02:06:47;18.00;70.00
11836;DHT22;5977;51.972;7.640;2023-03-20T02:09:19;18.00;70.40
11836;DHT22;5977;51.972;7.640;2023-03-20T02:11:48;17.90;70.30
11836;DHT22;5977;51.972;7.640;2023-03-20T02:14:19;18.00;71.20
11836;DHT22;5977;51.972;7.640;2023-03-20T02:17:01;17.90;70.60
11836;DHT22;5977;51.972;7.640;2023-03-20T02:19:40;18.00;71.20
11836;DHT22;5977;51.972;7.640;2023-03-20T02:31:54;17.70;71.00
11836;DHT22;5977;51.972;7.640;2023-03-20T02:35:03;17.80;71.60
11836;DHT22;5977;51.972;7.640;2023-03-20T02:37:48;17.70;71.40
11836;DHT22;5977;51.972;7.640;2023-03-20T02:40:25;17.50;70.60
11836;DHT22;5977;51.972;7.640;2023-03-20T02:43:02;17.60;71.30
11836;DHT22;5977;51.972;7.640;2023-03-20T02:45:35;17.50;72.20
11836;DHT22;5977;51.972;7.640;2023-03-20T02:48:15;17.80;73.10
11836;DHT22;5977;51.972;7.640;2023-03-20T02:50:50;17.80;73.10
11836;DHT22;5977;51.972;7.640;2023-03-20T02:53:30;17.80;72.70
11836;DHT22;5977;51.972;7.640;2023-03-20T02:56:06;17.80;72.30
11836;DHT22;5977;51.972;7.640;2023-03-20T02:58:41;17.90;72.20
11836;DHT22;5977;51.972;7.640;2023-03-20T03:01:15;17.90;71.70
11836;DHT22;5977;51.972;7.640;2023-03-20T03:03:47;17.70;72.80
11836;DHT22;5977;51.972;7.640;2023-03-20T03:06:19;17.80;72.90
11836;DHT22;5977;51.972;7.640;2023-03-20T03:08:54;17.70;72.00
11836;DHT22;5977;51.972;7.640;2023-03-20T03:11:23;17.90;72.00
11836;DHT22;5977;51.972;7.640;2023-03-20T03:13:53;17.90;71.40
11836;DHT22;5977;51.972;7.640;2023-03-20T03:16:25;17.90;71.20
11836;DHT22;5977;51.972;7.640;2023-03-20T03:19:01;17.50;70.00
11836;DHT22;5977;51.972;7.640;2023-03-20T03:21:32;17.80;70.80
11836;DHT22;5977;51.972;7.640;2023-03-20T03:24:03;17.60;70.20
11836;DHT22;5977;51.972;7.640;2023-03-20T03:26:35;17.50;70.60
11836;DHT22;5977;51.972;7.640;2023-03-20T03:29:08;17.80;70.80
11836;DHT22;5977;51.972;7.640;2023-03-20T03:31:40;17.90;70.60
11836;DHT22;5977;51.972;7.640;2023-03-20T03:34:13;17.90;69.50
11836;DHT22;5977;51.972;7.640;2023-03-20T03:36:48;17.80;70.00
11836;DHT22;5977;51.972;7.640;2023-03-20T03:39:26;18.00;69.70
11836;DHT22;5977;51.972;7.640;2023-03-20T03:42:04;17.60;69.50
11836;DHT22;5977;51.972;7.640;2023-03-20T03:44:38;17.80;70.10
11836;DHT22;5977;51.972;7.640;2023-03-20T03:47:12;17.70;69.80
11836;DHT22;5977;51.972;7.640;2023-03-20T03:49:42;17.80;70.10
11836;DHT22;5977;51.972;7.640;2023-03-20T03:52:15;17.70;68.50
11836;DHT22;5977;51.972;7.640;2023-03-20T03:54:48;17.80;69.30
11836;DHT22;5977;51.972;7.640;2023-03-20T03:57:30;17.60;69.10
11836;DHT22;5977;51.972;7.640;2023-03-20T04:00:01;17.70;69.90
11836;DHT22;5977;51.972;7.640;2023-03-20T04:02:39;17.80;69.20
11836;DHT22;5977;51.972;7.640;2023-03-20T04:05:08;17.90;69.00
11836;DHT22;5977;51.972;7.640;2023-03-20T04:07:38;17.90;68.70
11836;DHT22;5977;51.972;7.640;2023-03-20T04:10:09;17.40;68.10
11836;DHT22;5977;51.972;7.640;2023-03-20T04:12:40;17.50;69.30
11836;DHT22;5977;51.972;7.640;2023-03-20T04:15:10;17.60;69.30
11836;DHT22;5977;51.972;7.640;2023-03-20T04:17:38;17.60;69.30
11836;DHT22;5977;51.972;7.640;2023-03-20T04:20:10;17.70;69.20
11836;DHT22;5977;51.972;7.640;2023-03-20T04:22:38;17.50;69.20
11836;DHT22;5977;51.972;7.640;2023-03-20T04:25:16;17.80;69.40
11836;DHT22;5977;51.972;7.640;2023-03-20T04:27:44;17.80;69.20
11836;DHT22;5977;51.972;7.640;2023-03-20T04:30:21;17.70;69.20
11836;DHT22;5977;51.972;7.640;2023-03-20T04:33:07;17.80;68.90
11836;DHT22;5977;51.972;7.640;2023-03-20T04:35:44;17.50;69.00
11836;DHT22;5977;51.972;7.640;2023-03-20T04:38:14;17.60;69.40
11836;DHT22;5977;51.972;7.640;2023-03-20T04:40:44;17.40;68.60
11836;DHT22;5977;51.972;7.640;2023-03-20T04:43:13;17.60;69.00
11836;DHT22;5977;51.972;7.640;2023-03-20T04:45:42;17.50;67.90
11836;DHT22;5977;51.972;7.640;2023-03-20T04:48:09;17.30;69.40
11836;DHT22;5977;51.972;7.640;2023-03-20T04:50:38;17.50;69.60
11836;DHT22;5977;51.972;7.640;2023-03-20T04:53:06;17.40;69.00
11836;DHT22;5977;51.972;7.640;2023-03-20T04:55:34;17.40;68.50
11836;DHT22;5977;51.972;7.640;2023-03-20T04:58:03;17.50;69.20
11836;DHT22;5977;51.972;7.640;2023-03-20T05:00:31;17.50;69.40
11836;DHT22;5977;51.972;7.640;2023-03-20T05:02:59;17.60;69.10
11836;DHT22;5977;51.972;7.640;2023-03-20T05:05:28;17.50;68.70
11836;DHT22;5977;51.972;7.640;2023-03-20T05:07:56;17.40;69.70
11836;DHT22;5977;51.972;7.640;2023-03-20T05:10:33;17.60;69.20
11836;DHT22;5977;51.972;7.640;2023-03-20T05:13:13;17.60;68.90
11836;DHT22;5977;51.972;7.640;2023-03-20T05:15:56;17.30;68.70
11836;DHT22;5977;51.972;7.640;2023-03-20T05:18:37;17.50;69.60
11836;DHT22;5977;51.972;7.640;2023-03-20T05:21:34;17.60;68.90
11836;DHT22;5977;51.972;7.640;2023-03-20T05:24:25;17.60;67.90
11836;DHT22;5977;51.972;7.640;2023-03-20T05:27:13;17.40;68.90
11836;DHT22;5977;51.972;7.640;2023-03-20T05:30:08;17.60;68.20
11836;DHT22;5977;51.972;7.640;2023-03-20T05:32:56;17.30;68.10
11836;DHT22;5977;51.972;7.640;2023-03-20T05:35:26;17.50;69.00
11836;DHT22;5977;51.972;7.640;2023-03-20T05:38:03;17.40;68.80
11836;DHT22;5977;51.972;7.640;2023-03-20T05:40:55;17.50;68.40
11836;DHT22;5977;51.972;7.640;2023-03-20T05:43:48;17.30;69.00
11836;DHT22;5977;51.972;7.640;2023-03-20T05:46:37;17.30;68.80
11836;DHT22;5977;51.972;7.640;2023-03-20T05:49:08;17.30;68.60
11836;DHT22;5977;51.972;7.640;2023-03-20T05:52:05;17.20;68.50
11836;DHT22;5977;51.972;7.640;2023-03-20T05:54:56;17.40;68.80
11836;DHT22;5977;51.972;7.640;2023-03-20T05:57:38;17.30;67.90
11836;DHT22;5977;51.972;7.640;2023-03-20T06:00:24;17.40;68.20
11836;DHT22;5977;51.972;7.640;2023-03-20T06:03:13;17.40;68.80
11836;DHT22;5977;51.972;7.640;2023-03-20T06:06:01;17.50;68.10
11836;DHT22;5977;51.972;7.640;2023-03-20T06:08:29;17.40;68.00
11836;DHT22;5977;51.972;7.640;2023-03-20T06:10:58;17.40;67.80
11836;DHT22;5977;51.972;7.640;2023-03-20T06:13:27;17.60;68.20
11836;DHT22;5977;51.972;7.640;2023-03-20T06:15:55;17.30;66.70
11836;DHT22;5977;51.972;7.640;2023-03-20T06:18:24;17.30;67.90
11836;DHT22;5977;51.972;7.640;2023-03-20T06:20:55;17.20;67.80
11836;DHT22;5977;51.972;7.640;2023-03-20T06:23:26;17.20;66.80
11836;DHT22;5977;51.972;7.640;2023-03-20T06:25:54;17.30;67.40
11836;DHT22;5977;51.972;7.640;2023-03-20T06:28:22;17.40;66.30
11836;DHT22;5977;51.972;7.640;2023-03-20T06:30:58;17.30;67.00
11836;DHT22;5977;51.972;7.640;2023-03-20T06:33:29;17.50;67.00
11836;DHT22;5977;51.972;7.640;2023-03-20T06:35:58;17.50;66.00
11836;DHT22;5977;51.972;7.640;2023-03-20T06:38:29;17.60;67.40
11836;DHT22;5977;51.972;7.640;2023-03-20T06:41:03;17.30;65.80
11836;DHT22;5977;51.972;7.640;2023-03-20T06:43:31;17.30;67.20
11836;DHT22;5977;51.972;7.640;2023-03-20T06:45:59;17.10;66.50
11836;DHT22;5977;51.972;7.640;2023-03-20T06:48:30;17.10;66.80
11836;DHT22;5977;51.972;7.640;2023-03-20T06:51:02;17.20;66.40
11836;DHT22;5977;51.972;7.640;2023-03-20T06:53:35;17.10;66.50
11836;DHT22;5977;51.972;7.640;2023-03-20T06:56:08;17.30;66.70
11836;DHT22;5977;51.972;7.640;2023-03-20T06:58:39;17.30;67.00
11836;DHT22;5977;51.972;7.640;2023-03-20T07:01:11;17.50;66.00
11836;DHT22;5977;51.972;7.640;2023-03-20T07:03:41;17.60;67.10
11836;DHT22;5977;51.972;7.640;2023-03-20T07:06:09;17.70;66.50
11836;DHT22;5977;51.972;7.640;2023-03-20T07:08:37;17.70;66.40
11836;DHT22;5977;51.972;7.640;2023-03-20T07:11:06;17.60;65.20
11836;DHT22;5977;51.972;7.640;2023-03-20T07:13:34;17.60;66.40
11836;DHT22;5977;51.972;7.640;2023-03-20T07:16:12;17.70;66.30
11836;DHT22;5977;51.972;7.640;2023-03-20T07:18:42;17.90;65.00
11836;DHT22;5977;51.972;7.640;2023-03-20T07:21:14;17.80;65.40
11836;DHT22;5977;51.972;7.640;2023-03-20T07:23:43;17.60;65.70
11836;DHT22;5977;51.972;7.640;2023-03-20T07:26:11;18.00;66.10
11836;DHT22;5977;51.972;7.640;2023-03-20T07:28:39;17.90;64.90
11836;DHT22;5977;51.972;7.640;2023-03-20T07:31:23;17.70;63.90
11836;DHT22;5977;51.972;7.640;2023-03-20T07:34:21;17.50;64.90
11836;DHT22;5977;51.972;7.640;2023-03-20T07:36:50;17.50;64.70
11836;DHT22;5977;51.972;7.640;2023-03-20T07:39:20;17.60;65.30
11836;DHT22;5977;51.972;7.640;2023-03-20T07:42:21;17.50;65.50
11836;DHT22;5977;51.972;7.640;2023-03-20T07:44:56;17.50;66.30
11836;DHT22;5977;51.972;7.640;2023-03-20T07:47:24;17.60;64.50
11836;DHT22;5977;51.972;7.640;2023-03-20T07:49:54;17.20;64.90
11836;DHT22;5977;51.972;7.640;2023-03-20T07:52:22;17.60;66.20
11836;DHT22;5977;51.972;7.640;2023-03-20T07:54:51;17.50;64.10
11836;DHT22;5977;51.972;7.640;2023-03-20T07:57:20;17.90;65.70
11836;DHT22;5977;51.972;7.640;2023-03-20T07:59:48;17.80;65.00
11836;DHT22;5977;51.972;7.640;2023-03-20T08:02:16;18.00;65.00
11836;DHT22;5977;51.972;7.640;2023-03-20T08:04:44;18.00;63.70
11836;DHT22;5977;51.972;7.640;2023-03-20T08:07:14;17.50;63.40
11836;DHT22;5977;51.972;7.640;2023-03-20T08:09:43;17.70;64.70
11836;DHT22;5977;51.972;7.640;2023-03-20T08:12:15;17.50;64.60
11836;DHT22;5977;51.972;7.640;2023-03-20T08:14:43;17.80;64.00
11836;DHT22;5977;51.972;7.640;2023-03-20T08:17:11;18.00;64.10
11836;DHT22;5977;51.972;7.640;2023-03-20T08:19:43;17.80;62.50
11836;DHT22;5977;51.972;7.640;2023-03-20T08:22:13;18.20;63.90
11836;DHT22;5977;51.972;7.640;2023-03-20T08:24:41;18.30;62.00
11836;DHT22;5977;51.972;7.640;2023-03-20T08:27:09;18.20;63.70
11836;DHT22;5977;51.972;7.640;2023-03-20T08:29:37;18.40;63.50
11836;DHT22;5977;51.972;7.640;2023-03-20T08:32:05;18.10;63.00
11836;DHT22;5977;51.972;7.640;2023-03-20T08:34:33;18.40;62.90
11836;DHT22;5977;51.972;7.640;2023-03-20T08:37:02;18.10;61.50
11836;DHT22;5977;51.972;7.640;2023-03-20T08:39:32;18.10;62.60
11836;DHT22;5977;51.972;7.640;2023-03-20T08:42:00;18.20;62.30
11836;DHT22;5977;51.972;7.640;2023-03-20T08:44:28;18.10;62.20
11836;DHT22;5977;51.972;7.640;2023-03-20T08:46:56;18.70;62.00
11836;DHT22;5977;51.972;7.640;2023-03-20T08:49:24;18.80;60.40
11836;DHT22;5977;51.972;7.640;2023-03-20T08:51:53;18.70;61.20
11836;DHT22;5977;51.972;7.640;2023-03-20T08:54:21;18.70;60.40
11836;DHT22;5977;51.972;7.640;2023-03-20T08:56:50;18.30;60.30
11836;DHT22;5977;51.972;7.640;2023-03-20T08:59:18;18.20;60.60
11836;DHT22;5977;51.972;7.640;2023-03-20T09:01:46;18.40;62.20
11836;DHT22;5977;51.972;7.640;2023-03-20T09:04:16;18.50;60.80
11836;DHT22;5977;51.972;7.640;2023-03-20T09:06:45;18.60;61.80
11836;DHT22;5977;51.972;7.640;2023-03-20T09:09:13;18.60;60.80
11836;DHT22;5977;51.972;7.640;2023-03-20T09:11:44;18.70;60.90
11836;DHT22;5977;51.972;7.640;2023-03-20T09:14:13;18.60;59.80
11836;DHT22;5977;51.972;7.640;2023-03-20T09:16:41;18.60;59.50
11836;DHT22;5977;51.972;7.640;2023-03-20T09:19:09;18.90;60.30
11836;DHT22;5977;51.972;7.640;2023-03-20T09:21:37;18.60;59.70
11836;DHT22;5977;51.972;7.640;2023-03-20T09:24:06;18.50;59.50
11836;DHT22;5977;51.972;7.640;2023-03-20T09:26:33;18.50;58.70
11836;DHT22;5977;51.972;7.640;2023-03-20T09:29:01;18.80;60.00
11836;DHT22;5977;51.972;7.640;2023-03-20T09:31:31;18.70;58.60
11836;DHT22;5977;51.972;7.640;2023-03-20T09:33:59;18.80;60.10
11836;DHT22;5977;51.972;7.640;2023-03-20T09:36:27;18.80;58.80
11836;DHT22;5977;51.972;7.640;2023-03-20T09:38:55;18.70;58.00
11836;DHT22;5977;51.972;7.640;2023-03-20T09:41:24;18.70;59.90
11836;DHT22;5977;51.972;7.640;2023-03-20T09:44:11;18.60;58.00
11836;DHT22;5977;51.972;7.640;2023-03-20T09:47:00;18.80;59.40
11836;DHT22;5977;51.972;7.640;2023-03-20T09:49:52;18.90;59.50
11836;DHT22;5977;51.972;7.640;2023-03-20T09:52:26;18.80;59.80
11836;DHT22;5977;51.972;7.640;2023-03-20T09:54:57;18.80;58.40
11836;DHT22;5977;51.972;7.640;2023-03-20T09:57:31;18.70;57.50
11836;DHT22;5977;51.972;7.640;2023-03-20T10:00:03;18.50;57.90
11836;DHT22;5977;51.972;7.640;2023-03-20T10:02:45;18.50;57.50
11836;DHT22;5977;51.972;7.640;2023-03-20T10:05:18;18.50;58.70
11836;DHT22;5977;51.972;7.640;2023-03-20T10:07:48;18.50;58.30
11836;DHT22;5977;51.972;7.640;2023-03-20T10:10:17;18.60;57.00
11836;DHT22;5977;51.972;7.640;2023-03-20T10:12:52;18.40;56.80
11836;DHT22;5977;51.972;7.640;2023-03-20T10:15:27;18.50;57.80
11836;DHT22;5977;51.972;7.640;2023-03-20T10:18:13;18.40;56.80
11836;DHT22;5977;51.972;7.640;2023-03-20T10:20:47;18.40;58.00
11836;DHT22;5977;51.972;7.640;2023-03-20T10:23:26;18.20;57.30
11836;DHT22;5977;51.972;7.640;2023-03-20T10:26:00;18.20;57.70
11836;DHT22;5977;51.972;7.640;2023-03-20T10:28:33;18.30;57.50
11836;DHT22;5977;51.972;7.640;2023-03-20T10:31:14;18.30;57.90
11836;DHT22;5977;51.972;7.640;2023-03-20T10:33:53;18.30;57.60
11836;DHT22;5977;51.972;7.640;2023-03-20T10:36:35;18.20;57.50
11836;DHT22;5977;51.972;7.640;2023-03-20T10:39:12;18.30;58.10
11836;DHT22;5977;51.972;7.640;2023-03-20T10:41:48;18.10;59.60
11836;DHT22;5977;51.972;7.640;2023-03-20T10:44:26;18.20;60.40
11836;DHT22;5977;51.972;7.640;2023-03-20T10:46:56;18.50;65.10
11836;DHT22;5977;51.972;7.640;2023-03-20T10:49:32;18.50;61.90
11836;DHT22;5977;51.972;7.640;2023-03-20T10:52:08;18.70;62.00
11836;DHT22;5977;51.972;7.640;2023-03-20T10:54:40;18.60;61.90
11836;DHT22;5977;51.972;7.640;2023-03-20T10:57:13;18.70;62.30
11836;DHT22;5977;51.972;7.640;2023-03-20T10:59:47;18.80;61.40
11836;DHT22;5977;51.972;7.640;2023-03-20T11:02:17;18.90;60.10
11836;DHT22;5977;51.972;7.640;2023-03-20T11:04:47;19.00;60.20
11836;DHT22;5977;51.972;7.640;2023-03-20T11:07:21;19.00;59.90
11836;DHT22;5977;51.972;7.640;2023-03-20T11:10:09;18.70;58.50
11836;DHT22;5977;51.972;7.640;2023-03-20T11:12:39;18.50;59.70
11836;DHT22;5977;51.972;7.640;2023-03-20T11:15:19;18.40;59.10
11836;DHT22;5977;51.972;7.640;2023-03-20T11:17:55;18.70;60.50
11836;DHT22;5977;51.972;7.640;2023-03-20T11:20:26;18.90;59.10
11836;DHT22;5977;51.972;7.640;2023-03-20T11:23:00;18.80;59.70
11836;DHT22;5977;51.972;7.640;2023-03-20T11:25:29;18.60;58.70
11836;DHT22;5977;51.972;7.640;2023-03-20T11:28:24;18.80;59.40
11836;DHT22;5977;51.972;7.640;2023-03-20T11:30:57;18.80;58.00
11836;DHT22;5977;51.972;7.640;2023-03-20T11:33:35;18.80;58.30
11836;DHT22;5977;51.972;7.640;2023-03-20T11:36:10;18.90;58.30
11836;DHT22;5977;51.972;7.640;2023-03-20T11:38:43;18.90;58.00
11836;DHT22;5977;51.972;7.640;2023-03-20T11:41:17;19.00;57.90
11836;DHT22;5977;51.972;7.640;2023-03-20T11:43:46;19.00;58.30
11836;DHT22;5977;51.972;7.640;2023-03-20T11:46:14;19.00;58.10
11836;DHT22;5977;51.972;7.640;2023-03-20T11:48:43;19.10;58.50
11836;DHT22;5977;51.972;7.640;2023-03-20T11:51:16;18.90;57.00
11836;DHT22;5977;51.972;7.640;2023-03-20T11:53:57;19.10;58.40
11836;DHT22;5977;51.972;7.640;2023-03-20T11:56:28;19.00;57.30
11836;DHT22;5977;51.972;7.640;2023-03-20T11:59:00;18.70;58.20
11836;DHT22;5977;51.972;7.640;2023-03-20T12:01:37;18.80;58.50
11836;DHT22;5977;51.972;7.640;2023-03-20T12:04:09;18.50;57.40
11836;DHT22;5977;51.972;7.640;2023-03-20T12:06:43;18.60;58.90
11836;DHT22;5977;51.972;7.640;2023-03-20T12:09:32;18.50;58.60
11836;DHT22;5977;51.972;7.640;2023-03-20T12:12:07;18.60;58.00
11836;DHT22;5977;51.972;7.640;2023-03-20T12:14:42;18.50;58.00
11836;DHT22;5977;51.972;7.640;2023-03-20T12:17:39;18.40;58.60
11836;DHT22;5977;51.972;7.640;2023-03-20T12:20:15;18.40;57.60
11836;DHT22;5977;51.972;7.640;2023-03-20T12:22:53;18.60;58.40
11836;DHT22;5977;51.972;7.640;2023-03-20T12:25:25;18.30;57.50
11836;DHT22;5977;51.972;7.640;2023-03-20T12:28:00;18.50;58.40
11836;DHT22;5977;51.972;7.640;2023-03-20T12:30:37;18.50;57.40
11836;DHT22;5977;51.972;7.640;2023-03-20T12:33:10;18.60;58.20
11836;DHT22;5977;51.972;7.640;2023-03-20T12:35:42;18.50;56.80
11836;DHT22;5977;51.972;7.640;2023-03-20T12:38:21;18.50;57.10
11836;DHT22;5977;51.972;7.640;2023-03-20T12:40:54;18.50;57.20
11836;DHT22;5977;51.972;7.640;2023-03-20T12:43:26;18.60;57.00
11836;DHT22;5977;51.972;7.640;2023-03-20T12:46:02;18.40;57.20
11836;DHT22;5977;51.972;7.640;2023-03-20T12:48:49;18.40;57.30
11836;DHT22;5977;51.972;7.640;2023-03-20T12:51:23;18.50;57.20
11836;DHT22;5977;51.972;7.640;2023-03-20T12:54:01;18.30;57.40
11836;DHT22;5977;51.972;7.640;2023-03-20T12:56:53;18.40;58.50
11836;DHT22;5977;51.972;7.640;2023-03-20T12:59:28;18.60;58.20
11836;DHT22;5977;51.972;7.640;2023-03-20T13:02:02;18.60;58.10
11836;DHT22;5977;51.972;7.640;2023-03-20T13:04:48;18.40;57.20
11836;DHT22;5977;51.972;7.640;2023-03-20T13:07:22;18.10;57.10
11836;DHT22;5977;51.972;7.640;2023-03-20T13:10:01;18.20;58.20
11836;DHT22;5977;51.972;7.640;2023-03-20T13:12:38;18.20;58.20
11836;DHT22;5977;51.972;7.640;2023-03-20T13:15:29;18.30;58.80
11836;DHT22;5977;51.972;7.640;2023-03-20T13:18:03;18.00;58.50
11836;DHT22;5977;51.972;7.640;2023-03-20T13:20:36;18.20;59.10
11836;DHT22;5977;51.972;7.640;2023-03-20T13:23:11;18.10;59.30
11836;DHT22;5977;51.972;7.640;2023-03-20T13:28:53;18.20;59.20
11836;DHT22;5977;51.972;7.640;2023-03-20T13:34:22;17.90;59.80
11836;DHT22;5977;51.972;7.640;2023-03-20T13:37:01;17.90;59.70
11836;DHT22;5977;51.972;7.640;2023-03-20T13:39:58;18.20;59.70
11836;DHT22;5977;51.972;7.640;2023-03-20T13:42:33;18.30;59.90
11836;DHT22;5977;51.972;7.640;2023-03-20T13:45:06;18.20;58.90
11836;DHT22;5977;51.972;7.640;2023-03-20T13:47:40;18.20;59.50
11836;DHT22;5977;51.972;7.640;2023-03-20T13:50:23;18.20;59.70
11836;DHT22;5977;51.972;7.640;2023-03-20T13:52:58;18.40;60.20
11836;DHT22;5977;51.972;7.640;2023-03-20T13:55:33;18.40;59.50
11836;DHT22;5977;51.972;7.640;2023-03-20T13:58:32;18.40;59.70
11836;DHT22;5977;51.972;7.640;2023-03-20T14:01:06;18.30;58.80
11836;DHT22;5977;51.972;7.640;2023-03-20T14:03:42;18.00;59.00
11836;DHT22;5977;51.972;7.640;2023-03-20T14:06:48;18.00;58.80
11836;DHT22;5977;51.972;7.640;2023-03-20T14:09:28;17.80;59.90
11836;DHT22;5977;51.972;7.640;2023-03-20T14:12:00;18.10;61.50
11836;DHT22;5977;51.972;7.640;2023-03-20T14:14:31;18.20;60.60
11836;DHT22;5977;51.972;7.640;2023-03-20T14:17:07;18.10;60.10
11836;DHT22;5977;51.972;7.640;2023-03-20T14:19:38;18.10;60.80
11836;DHT22;5977;51.972;7.640;2023-03-20T14:22:14;18.10;60.40
11836;DHT22;5977;51.972;7.640;2023-03-20T14:24:51;18.10;61.10
11836;DHT22;5977;51.972;7.640;2023-03-20T14:27:21;18.00;61.20
11836;DHT22;5977;51.972;7.640;2023-03-20T14:30:38;18.00;61.10
11836;DHT22;5977;51.972;7.640;2023-03-20T14:33:23;18.20;61.70
11836;DHT22;5977;51.972;7.640;2023-03-20T14:36:11;18.30;61.50
11836;DHT22;5977;51.972;7.640;2023-03-20T14:38:45;18.00;60.90
11836;DHT22;5977;51.972;7.640;2023-03-20T14:41:25;18.30;62.30
11836;DHT22;5977;51.972;7.640;2023-03-20T14:44:02;18.20;61.30
11836;DHT22;5977;51.972;7.640;2023-03-20T14:46:42;17.90;61.30
11836;DHT22;5977;51.972;7.640;2023-03-20T14:49:36;17.90;61.40
11836;DHT22;5977;51.972;7.640;2023-03-20T14:52:27;18.40;62.80
11836;DHT22;5977;51.972;7.640;2023-03-20T14:55:25;18.40;61.40
11836;DHT22;5977;51.972;7.640;2023-03-20T14:57:54;18.60;60.80
11836;DHT22;5977;51.972;7.640;2023-03-20T15:00:25;18.40;60.30
11836;DHT22;5977;51.972;7.640;2023-03-20T15:03:03;18.70;60.50
11836;DHT22;5977;51.972;7.640;2023-03-20T15:05:34;18.60;60.70
11836;DHT22;5977;51.972;7.640;2023-03-20T15:08:04;18.60;60.10
11836;DHT22;5977;51.972;7.640;2023-03-20T15:10:35;18.70;60.10
11836;DHT22;5977;51.972;7.640;2023-03-20T15:13:06;18.80;59.90
11836;DHT22;5977;51.972;7.640;2023-03-20T15:15:34;18.70;60.20
11836;DHT22;5977;51.972;7.640;2023-03-20T15:18:09;18.50;59.90
11836;DHT22;5977;51.972;7.640;2023-03-20T15:20:38;18.30;59.20
11836;DHT22;5977;51.972;7.640;2023-03-20T15:23:06;18.30;59.80
11836;DHT22;5977;51.972;7.640;2023-03-20T15:25:38;18.50;60.90
11836;DHT22;5977;51.972;7.640;2023-03-20T15:28:07;18.70;60.30
11836;DHT22;5977;51.972;7.640;2023-03-20T15:30:37;18.40;59.40
11836;DHT22;5977;51.972;7.640;2023-03-20T15:33:13;18.30;59.60
11836;DHT22;5977;51.972;7.640;2023-03-20T15:35:42;18.50;60.70
11836;DHT22;5977;51.972;7.640;2023-03-20T15:38:13;18.50;60.00
11836;DHT22;5977;51.972;7.640;2023-03-20T15:40:42;18.10;60.70
11836;DHT22;5977;51.972;7.640;2023-03-20T15:43:19;18.10;61.80
11836;DHT22;5977;51.972;7.640;2023-03-20T15:45:47;18.00;62.60
11836;DHT22;5977;51.972;7.640;2023-03-20T15:48:20;18.20;62.80
11836;DHT22;5977;51.972;7.640;2023-03-20T15:50:51;18.20;61.90
11836;DHT22;5977;51.972;7.640;2023-03-20T15:53:25;18.30;62.00
11836;DHT22;5977;51.972;7.640;2023-03-20T15:56:00;18.20;61.70
11836;DHT22;5977;51.972;7.640;2023-03-20T15:58:44;18.30;62.20
11836;DHT22;5977;51.972;7.640;2023-03-20T16:01:16;18.50;62.20
11836;DHT22;5977;51.972;7.640;2023-03-20T16:03:46;18.40;62.70
11836;DHT22;5977;51.972;7.640;2023-03-20T16:06:18;18.30;61.80
11836;DHT22;5977;51.972;7.640;2023-03-20T16:08:55;18.30;62.30
11836;DHT22;5977;51.972;7.640;2023-03-20T16:11:24;18.20;62.40
11836;DHT22;5977;51.972;7.640;2023-03-20T16:13:52;18.30;62.10
11836;DHT22;5977;51.972;7.640;2023-03-20T16:16:21;18.50;62.20
11836;DHT22;5977;51.972;7.640;2023-03-20T16:18:52;18.40;61.90
11836;DHT22;5977;51.972;7.640;2023-03-20T16:21:22;18.50;62.40
11836;DHT22;5977;51.972;7.640;2023-03-20T16:23:53;18.60;61.90
11836;DHT22;5977;51.972;7.640;2023-03-20T16:26:24;18.50;61.60
11836;DHT22;5977;51.972;7.640;2023-03-20T16:28:54;18.30;62.90
11836;DHT22;5977;51.972;7.640;2023-03-20T16:31:25;18.40;62.80
11836;DHT22;5977;51.972;7.640;2023-03-20T16:33:59;18.50;63.00
11836;DHT22;5977;51.972;7.640;2023-03-20T16:36:28;18.40;62.70
11836;DHT22;5977;51.972;7.640;2023-03-20T16:39:01;18.50;62.70
11836;DHT22;5977;51.972;7.640;2023-03-20T16:41:34;18.60;62.30
11836;DHT22;5977;51.972;7.640;2023-03-20T16:44:06;18.50;62.20
11836;DHT22;5977;51.972;7.640;2023-03-20T16:46:34;18.50;62.40